Potsdam, Minnesota
Current Conditions -  °F | °C
As of 9:14 PM on Thursday 18 Dec 2014 (Local Time) from K9MN Reporting Station
Overcast Overcast  
Wind Chill: 21°   Ceiling: 1400
Heat Index: 21°   Visibility: 10mi
Dew Point: 15°   Wind: 0mph
Humidity: 77%   Direction: NA
Pressure: 30.25"   Gusts: NA
Location:  44.1501°N, 92.2609°W
Report Text: K9MN 190314Z AUTO 00000KT 10SM OVC014 M06/M09 A3025 RMK AO1 T10601095
Loading
Personal Weather Stations






























Interactive Weather Map New forecast layout! Learn more

10-Day Weather Forecast

Advertisements
Track Severe Weather on mobile